sensor_id;sensor_type;location;lat;lon;timestamp;temperature;humidity
18974;DHT22;9621;48.690;9.466;2022-09-09T05:50:19;6.30;99.90
18974;DHT22;9621;48.690;9.466;2022-09-09T05:52:46;6.50;99.90
18974;DHT22;9621;48.690;9.466;2022-09-09T06:13:23;10.00;99.90
18974;DHT22;9621;48.690;9.466;2022-09-09T06:23:36;10.50;99.90
18974;DHT22;9621;48.690;9.466;2022-09-09T06:26:09;11.30;99.90
18974;DHT22;9621;48.690;9.466;2022-09-09T06:38:59;11.30;99.90
18974;DHT22;9621;48.690;9.466;2022-09-09T06:41:28;11.40;99.90
18974;DHT22;9621;48.690;9.466;2022-09-09T06:43:55;11.60;99.90
18974;DHT22;9621;48.690;9.466;2022-09-09T06:46:23;11.70;99.90
18974;DHT22;9621;48.690;9.466;2022-09-09T06:48:53;11.90;99.90
18974;DHT22;9621;48.690;9.466;2022-09-09T06:51:24;12.40;99.90
18974;DHT22;9621;48.690;9.466;2022-09-09T06:53:52;13.10;99.90
18974;DHT22;9621;48.690;9.466;2022-09-09T06:56:23;13.80;99.90
18974;DHT22;9621;48.690;9.466;2022-09-09T06:58:51;14.60;99.90
18974;DHT22;9621;48.690;9.466;2022-09-09T07:01:20;15.30;99.90
18974;DHT22;9621;48.690;9.466;2022-09-09T07:03:49;15.70;99.90
18974;DHT22;9621;48.690;9.466;2022-09-09T07:06:18;15.90;99.90
18974;DHT22;9621;48.690;9.466;2022-09-09T07:08:49;16.10;99.90
18974;DHT22;9621;48.690;9.466;2022-09-09T07:11:17;16.20;99.90
18974;DHT22;9621;48.690;9.466;2022-09-09T07:13:46;16.20;99.90
18974;DHT22;9621;48.690;9.466;2022-09-09T07:16:14;16.10;99.90
18974;DHT22;9621;48.690;9.466;2022-09-09T07:18:42;16.10;99.90
18974;DHT22;9621;48.690;9.466;2022-09-09T07:21:10;16.00;99.90
18974;DHT22;9621;48.690;9.466;2022-09-09T07:23:39;15.80;99.90
18974;DHT22;9621;48.690;9.466;2022-09-09T07:26:08;15.80;99.90
18974;DHT22;9621;48.690;9.466;2022-09-09T07:28:36;15.80;99.90
18974;DHT22;9621;48.690;9.466;2022-09-09T07:31:05;15.90;99.90
18974;DHT22;9621;48.690;9.466;2022-09-09T07:33:34;16.10;99.90
18974;DHT22;9621;48.690;9.466;2022-09-09T07:36:06;16.40;99.90
18974;DHT22;9621;48.690;9.466;2022-09-09T07:38:38;16.60;99.90
18974;DHT22;9621;48.690;9.466;2022-09-09T07:41:07;17.00;99.90
18974;DHT22;9621;48.690;9.466;2022-09-09T07:43:37;17.40;99.90
18974;DHT22;9621;48.690;9.466;2022-09-09T07:46:06;17.80;99.90
18974;DHT22;9621;48.690;9.466;2022-09-09T07:48:33;18.20;99.90
18974;DHT22;9621;48.690;9.466;2022-09-09T07:51:08;18.80;99.90
18974;DHT22;9621;48.690;9.466;2022-09-09T07:53:36;19.30;99.90
18974;DHT22;9621;48.690;9.466;2022-09-09T07:56:05;19.80;99.90
18974;DHT22;9621;48.690;9.466;2022-09-09T07:58:32;20.30;99.90
18974;DHT22;9621;48.690;9.466;2022-09-09T08:00:59;20.50;99.20
18974;DHT22;9621;48.690;9.466;2022-09-09T08:03:27;20.60;98.50
18974;DHT22;9621;48.690;9.466;2022-09-09T08:06:00;20.60;97.80
18974;DHT22;9621;48.690;9.466;2022-09-09T08:08:28;20.70;96.80
18974;DHT22;9621;48.690;9.466;2022-09-09T08:11:02;20.80;97.90
18974;DHT22;9621;48.690;9.466;2022-09-09T08:13:30;21.10;96.90
18974;DHT22;9621;48.690;9.466;2022-09-09T08:16:04;21.70;97.90
18974;DHT22;9621;48.690;9.466;2022-09-09T08:18:34;22.20;94.70
18974;DHT22;9621;48.690;9.466;2022-09-09T08:21:08;22.60;94.70
18974;DHT22;9621;48.690;9.466;2022-09-09T08:23:37;23.00;93.00
18974;DHT22;9621;48.690;9.466;2022-09-09T08:26:10;23.40;93.60
18974;DHT22;9621;48.690;9.466;2022-09-09T08:28:38;23.60;91.10
18974;DHT22;9621;48.690;9.466;2022-09-09T08:31:10;23.80;91.70
18974;DHT22;9621;48.690;9.466;2022-09-09T08:33:40;24.00;88.80
18974;DHT22;9621;48.690;9.466;2022-09-09T08:36:09;24.30;90.40
18974;DHT22;9621;48.690;9.466;2022-09-09T08:38:37;24.70;89.90
18974;DHT22;9621;48.690;9.466;2022-09-09T08:44:01;25.40;84.70
18974;DHT22;9621;48.690;9.466;2022-09-09T08:46:36;25.80;84.70
18974;DHT22;9621;48.690;9.466;2022-09-09T08:49:19;26.20;83.10
18974;DHT22;9621;48.690;9.466;2022-09-09T08:51:48;26.50;78.70
18974;DHT22;9621;48.690;9.466;2022-09-09T08:54:16;26.80;80.70
18974;DHT22;9621;48.690;9.466;2022-09-09T08:56:44;26.90;78.10
18974;DHT22;9621;48.690;9.466;2022-09-09T08:59:15;26.90;76.10
18974;DHT22;9621;48.690;9.466;2022-09-09T09:02:02;26.90;73.60
18974;DHT22;9621;48.690;9.466;2022-09-09T09:04:50;26.80;71.70
18974;DHT22;9621;48.690;9.466;2022-09-09T09:07:28;26.60;71.20
18974;DHT22;9621;48.690;9.466;2022-09-09T09:10:03;26.30;72.10
18974;DHT22;9621;48.690;9.466;2022-09-09T09:12:40;25.90;71.90
18974;DHT22;9621;48.690;9.466;2022-09-09T09:15:14;25.70;72.90
18974;DHT22;9621;48.690;9.466;2022-09-09T09:17:43;25.40;72.90
18974;DHT22;9621;48.690;9.466;2022-09-09T09:20:14;25.20;74.10
18974;DHT22;9621;48.690;9.466;2022-09-09T09:22:47;24.90;71.90
18974;DHT22;9621;48.690;9.466;2022-09-09T09:25:18;24.60;72.60
18974;DHT22;9621;48.690;9.466;2022-09-09T09:27:52;24.10;72.80
18974;DHT22;9621;48.690;9.466;2022-09-09T09:30:24;23.80;71.90
18974;DHT22;9621;48.690;9.466;2022-09-09T09:32:56;23.50;74.00
18974;DHT22;9621;48.690;9.466;2022-09-09T09:35:27;23.20;75.00
18974;DHT22;9621;48.690;9.466;2022-09-09T09:37:54;23.10;76.70
18974;DHT22;9621;48.690;9.466;2022-09-09T09:40:22;23.10;77.40
18974;DHT22;9621;48.690;9.466;2022-09-09T09:42:52;23.00;77.00
18974;DHT22;9621;48.690;9.466;2022-09-09T09:45:27;23.00;76.90
18974;DHT22;9621;48.690;9.466;2022-09-09T09:47:59;23.00;77.30
18974;DHT22;9621;48.690;9.466;2022-09-09T09:50:29;23.10;77.60
18974;DHT22;9621;48.690;9.466;2022-09-09T09:52:58;23.30;79.00
18974;DHT22;9621;48.690;9.466;2022-09-09T09:55:26;23.50;79.10
18974;DHT22;9621;48.690;9.466;2022-09-09T09:58:01;23.60;77.40
18974;DHT22;9621;48.690;9.466;2022-09-09T10:00:29;23.70;74.90
18974;DHT22;9621;48.690;9.466;2022-09-09T10:02:56;23.80;76.80
18974;DHT22;9621;48.690;9.466;2022-09-09T10:05:25;23.90;77.50
18974;DHT22;9621;48.690;9.466;2022-09-09T10:08:09;24.10;75.70
18974;DHT22;9621;48.690;9.466;2022-09-09T10:11:12;24.20;72.50
18974;DHT22;9621;48.690;9.466;2022-09-09T10:13:49;24.40;71.80
18974;DHT22;9621;48.690;9.466;2022-09-09T10:16:28;24.60;74.10
18974;DHT22;9621;48.690;9.466;2022-09-09T10:18:59;24.90;72.20
18974;DHT22;9621;48.690;9.466;2022-09-09T10:21:53;25.30;73.20
18974;DHT22;9621;48.690;9.466;2022-09-09T10:27:49;26.00;64.90
18974;DHT22;9621;48.690;9.466;2022-09-09T10:30:20;26.20;66.30
18974;DHT22;9621;48.690;9.466;2022-09-09T10:32:52;26.40;67.40
18974;DHT22;9621;48.690;9.466;2022-09-09T10:35:27;26.60;67.20
18974;DHT22;9621;48.690;9.466;2022-09-09T10:41:19;27.00;63.70
18974;DHT22;9621;48.690;9.466;2022-09-09T10:44:10;27.30;62.00
18974;DHT22;9621;48.690;9.466;2022-09-09T10:46:49;27.60;60.90
18974;DHT22;9621;48.690;9.466;2022-09-09T10:49:28;27.80;62.90
18974;DHT22;9621;48.690;9.466;2022-09-09T10:52:03;28.00;61.20
18974;DHT22;9621;48.690;9.466;2022-09-09T10:54:41;28.10;58.90
18974;DHT22;9621;48.690;9.466;2022-09-09T10:57:23;28.10;57.20
18974;DHT22;9621;48.690;9.466;2022-09-09T10:59:53;27.90;56.80
18974;DHT22;9621;48.690;9.466;2022-09-09T11:02:27;27.60;57.10
18974;DHT22;9621;48.690;9.466;2022-09-09T11:04:58;27.40;55.50
18974;DHT22;9621;48.690;9.466;2022-09-09T11:07:34;27.00;54.60
18974;DHT22;9621;48.690;9.466;2022-09-09T11:10:06;26.60;56.10
18974;DHT22;9621;48.690;9.466;2022-09-09T11:12:42;26.20;58.00
18974;DHT22;9621;48.690;9.466;2022-09-09T11:15:17;26.00;57.40
18974;DHT22;9621;48.690;9.466;2022-09-09T11:17:48;26.00;57.50
18974;DHT22;9621;48.690;9.466;2022-09-09T11:20:16;26.00;56.70
18974;DHT22;9621;48.690;9.466;2022-09-09T11:22:48;26.20;58.80
18974;DHT22;9621;48.690;9.466;2022-09-09T11:25:19;26.30;58.40
18974;DHT22;9621;48.690;9.466;2022-09-09T11:28:05;26.50;60.00
18974;DHT22;9621;48.690;9.466;2022-09-09T11:30:45;26.80;58.30
18974;DHT22;9621;48.690;9.466;2022-09-09T11:33:37;27.20;58.80
18974;DHT22;9621;48.690;9.466;2022-09-09T11:36:34;27.60;56.70
18974;DHT22;9621;48.690;9.466;2022-09-09T11:39:17;27.90;54.80
18974;DHT22;9621;48.690;9.466;2022-09-09T11:41:46;28.20;52.50
18974;DHT22;9621;48.690;9.466;2022-09-09T11:44:19;28.30;54.30
18974;DHT22;9621;48.690;9.466;2022-09-09T11:46:50;28.10;50.80
18974;DHT22;9621;48.690;9.466;2022-09-09T11:49:27;27.70;51.60
18974;DHT22;9621;48.690;9.466;2022-09-09T11:51:54;27.00;52.70
18974;DHT22;9621;48.690;9.466;2022-09-09T11:54:29;26.30;54.40
18974;DHT22;9621;48.690;9.466;2022-09-09T11:56:56;25.60;55.60
18974;DHT22;9621;48.690;9.466;2022-09-09T11:59:27;24.90;56.80
18974;DHT22;9621;48.690;9.466;2022-09-09T12:01:56;24.20;58.30
18974;DHT22;9621;48.690;9.466;2022-09-09T12:04:34;23.50;60.10
18974;DHT22;9621;48.690;9.466;2022-09-09T12:07:04;22.70;63.10
18974;DHT22;9621;48.690;9.466;2022-09-09T12:09:46;22.10;65.70
18974;DHT22;9621;48.690;9.466;2022-09-09T12:12:24;21.50;71.30
18974;DHT22;9621;48.690;9.466;2022-09-09T12:14:59;21.30;73.30
18974;DHT22;9621;48.690;9.466;2022-09-09T12:17:27;21.20;74.40
18974;DHT22;9621;48.690;9.466;2022-09-09T12:20:08;21.20;72.90
18974;DHT22;9621;48.690;9.466;2022-09-09T12:22:57;21.20;75.30
18974;DHT22;9621;48.690;9.466;2022-09-09T12:25:30;21.10;74.70
18974;DHT22;9621;48.690;9.466;2022-09-09T12:28:04;21.10;77.60
18974;DHT22;9621;48.690;9.466;2022-09-09T12:30:39;21.40;79.10
18974;DHT22;9621;48.690;9.466;2022-09-09T12:33:11;21.80;79.70
18974;DHT22;9621;48.690;9.466;2022-09-09T12:35:40;22.40;80.80
18974;DHT22;9621;48.690;9.466;2022-09-09T12:38:13;23.00;78.50
18974;DHT22;9621;48.690;9.466;2022-09-09T12:40:42;23.60;74.10
18974;DHT22;9621;48.690;9.466;2022-09-09T12:43:19;24.10;72.20
18974;DHT22;9621;48.690;9.466;2022-09-09T12:45:49;24.40;66.80
18974;DHT22;9621;48.690;9.466;2022-09-09T12:48:27;24.60;69.00
18974;DHT22;9621;48.690;9.466;2022-09-09T12:50:55;24.90;66.30
18974;DHT22;9621;48.690;9.466;2022-09-09T12:53:24;25.20;68.10
18974;DHT22;9621;48.690;9.466;2022-09-09T12:55:55;25.40;64.90
18974;DHT22;9621;48.690;9.466;2022-09-09T12:58:22;25.60;64.60
18974;DHT22;9621;48.690;9.466;2022-09-09T13:00:52;25.90;64.30
18974;DHT22;9621;48.690;9.466;2022-09-09T13:03:22;26.00;61.80
18974;DHT22;9621;48.690;9.466;2022-09-09T13:05:51;26.20;63.00
18974;DHT22;9621;48.690;9.466;2022-09-09T13:08:19;26.20;60.70
18974;DHT22;9621;48.690;9.466;2022-09-09T13:10:48;26.10;60.10
18974;DHT22;9621;48.690;9.466;2022-09-09T13:13:20;26.10;59.60
18974;DHT22;9621;48.690;9.466;2022-09-09T13:15:54;25.90;57.50
18974;DHT22;9621;48.690;9.466;2022-09-09T13:18:23;25.90;57.20
18974;DHT22;9621;48.690;9.466;2022-09-09T13:20:51;25.80;57.70
18974;DHT22;9621;48.690;9.466;2022-09-09T13:23:19;25.80;57.90
18974;DHT22;9621;48.690;9.466;2022-09-09T13:25:54;25.90;57.90
18974;DHT22;9621;48.690;9.466;2022-09-09T13:28:23;25.90;56.60
18974;DHT22;9621;48.690;9.466;2022-09-09T13:30:58;26.00;58.00
18974;DHT22;9621;48.690;9.466;2022-09-09T13:33:33;25.90;54.40
18974;DHT22;9621;48.690;9.466;2022-09-09T13:36:04;25.70;54.60
18974;DHT22;9621;48.690;9.466;2022-09-09T13:38:33;25.30;54.10
18974;DHT22;9621;48.690;9.466;2022-09-09T13:41:04;24.90;54.70
18974;DHT22;9621;48.690;9.466;2022-09-09T13:43:34;24.60;55.80
18974;DHT22;9621;48.690;9.466;2022-09-09T13:46:21;24.60;57.10
18974;DHT22;9621;48.690;9.466;2022-09-09T13:48:54;24.60;57.90
18974;DHT22;9621;48.690;9.466;2022-09-09T13:51:30;24.90;58.20
18974;DHT22;9621;48.690;9.466;2022-09-09T13:53:59;25.20;57.10
18974;DHT22;9621;48.690;9.466;2022-09-09T13:56:26;25.60;58.40
18974;DHT22;9621;48.690;9.466;2022-09-09T13:58:52;25.80;57.20
18974;DHT22;9621;48.690;9.466;2022-09-09T14:01:20;26.00;56.20
18974;DHT22;9621;48.690;9.466;2022-09-09T14:03:48;26.20;55.40
18974;DHT22;9621;48.690;9.466;2022-09-09T14:06:16;26.30;55.70
18974;DHT22;9621;48.690;9.466;2022-09-09T14:08:44;26.40;55.80
18974;DHT22;9621;48.690;9.466;2022-09-09T14:11:12;26.50;55.10
18974;DHT22;9621;48.690;9.466;2022-09-09T14:13:40;26.50;54.60
18974;DHT22;9621;48.690;9.466;2022-09-09T14:16:07;26.50;54.60
18974;DHT22;9621;48.690;9.466;2022-09-09T14:18:36;26.50;54.70
18974;DHT22;9621;48.690;9.466;2022-09-09T14:21:04;26.40;54.80
18974;DHT22;9621;48.690;9.466;2022-09-09T14:23:31;26.30;54.80
18974;DHT22;9621;48.690;9.466;2022-09-09T14:25:58;26.10;53.80
18974;DHT22;9621;48.690;9.466;2022-09-09T14:28:25;25.80;53.60
18974;DHT22;9621;48.690;9.466;2022-09-09T14:30:52;25.40;53.30
18974;DHT22;9621;48.690;9.466;2022-09-09T14:33:18;25.00;53.30
18974;DHT22;9621;48.690;9.466;2022-09-09T14:35:47;24.70;53.60
18974;DHT22;9621;48.690;9.466;2022-09-09T14:38:14;24.30;53.00
18974;DHT22;9621;48.690;9.466;2022-09-09T14:40:41;24.00;53.40
18974;DHT22;9621;48.690;9.466;2022-09-09T14:43:11;23.60;54.10
18974;DHT22;9621;48.690;9.466;2022-09-09T14:45:38;23.30;54.70
18974;DHT22;9621;48.690;9.466;2022-09-09T14:48:05;23.10;55.20
18974;DHT22;9621;48.690;9.466;2022-09-09T14:50:32;22.90;55.50
18974;DHT22;9621;48.690;9.466;2022-09-09T14:53:01;22.70;55.60
18974;DHT22;9621;48.690;9.466;2022-09-09T14:55:28;22.60;55.80
18974;DHT22;9621;48.690;9.466;2022-09-09T14:57:55;22.50;56.50
18974;DHT22;9621;48.690;9.466;2022-09-09T15:00:22;22.30;56.10
18974;DHT22;9621;48.690;9.466;2022-09-09T15:02:52;22.30;57.00
18974;DHT22;9621;48.690;9.466;2022-09-09T15:05:19;22.30;56.20
18974;DHT22;9621;48.690;9.466;2022-09-09T15:07:46;22.20;56.40
18974;DHT22;9621;48.690;9.466;2022-09-09T15:10:15;22.10;56.40
18974;DHT22;9621;48.690;9.466;2022-09-09T15:12:42;22.10;56.60
18974;DHT22;9621;48.690;9.466;2022-09-09T15:15:10;22.00;56.50
18974;DHT22;9621;48.690;9.466;2022-09-09T15:17:38;22.00;56.90
18974;DHT22;9621;48.690;9.466;2022-09-09T15:20:05;21.90;56.90
18974;DHT22;9621;48.690;9.466;2022-09-09T15:22:32;21.90;56.60
18974;DHT22;9621;48.690;9.466;2022-09-09T15:25:02;21.90;56.40
18974;DHT22;9621;48.690;9.466;2022-09-09T15:27:30;21.80;56.50
18974;DHT22;9621;48.690;9.466;2022-09-09T15:29:57;21.70;56.20
18974;DHT22;9621;48.690;9.466;2022-09-09T15:32:24;21.60;56.80
18974;DHT22;9621;48.690;9.466;2022-09-09T15:34:51;21.50;56.70
18974;DHT22;9621;48.690;9.466;2022-09-09T15:37:18;21.40;57.60
18974;DHT22;9621;48.690;9.466;2022-09-09T15:39:45;21.30;57.90
18974;DHT22;9621;48.690;9.466;2022-09-09T15:42:14;21.30;58.00
18974;DHT22;9621;48.690;9.466;2022-09-09T15:44:42;21.30;58.00
18974;DHT22;9621;48.690;9.466;2022-09-09T15:47:11;21.30;58.40
18974;DHT22;9621;48.690;9.466;2022-09-09T15:49:39;21.30;58.40
18974;DHT22;9621;48.690;9.466;2022-09-09T15:52:06;21.30;58.60
18974;DHT22;9621;48.690;9.466;2022-09-09T15:54:35;21.30;58.70
18974;DHT22;9621;48.690;9.466;2022-09-09T15:57:05;21.30;58.60
18974;DHT22;9621;48.690;9.466;2022-09-09T15:59:33;21.40;58.70
18974;DHT22;9621;48.690;9.466;2022-09-09T16:02:02;21.30;58.20
18974;DHT22;9621;48.690;9.466;2022-09-09T16:04:30;21.30;58.30
18974;DHT22;9621;48.690;9.466;2022-09-09T16:06:59;21.30;58.20
18974;DHT22;9621;48.690;9.466;2022-09-09T16:09:27;21.20;57.70
18974;DHT22;9621;48.690;9.466;2022-09-09T16:11:56;21.10;57.80
18974;DHT22;9621;48.690;9.466;2022-09-09T16:14:23;21.00;57.80
18974;DHT22;9621;48.690;9.466;2022-09-09T16:16:51;20.80;57.80
18974;DHT22;9621;48.690;9.466;2022-09-09T16:19:19;20.70;57.90
18974;DHT22;9621;48.690;9.466;2022-09-09T16:21:48;20.50;58.00
18974;DHT22;9621;48.690;9.466;2022-09-09T16:24:17;20.40;58.60
18974;DHT22;9621;48.690;9.466;2022-09-09T16:26:46;20.30;58.10
18974;DHT22;9621;48.690;9.466;2022-09-09T16:29:15;20.20;58.40
18974;DHT22;9621;48.690;9.466;2022-09-09T16:31:43;20.10;58.20
18974;DHT22;9621;48.690;9.466;2022-09-09T16:34:10;19.90;58.30
18974;DHT22;9621;48.690;9.466;2022-09-09T16:36:40;19.90;58.40
18974;DHT22;9621;48.690;9.466;2022-09-09T16:39:09;19.80;58.50
18974;DHT22;9621;48.690;9.466;2022-09-09T16:41:37;19.70;59.00
18974;DHT22;9621;48.690;9.466;2022-09-09T16:44:06;19.70;59.40
18974;DHT22;9621;48.690;9.466;2022-09-09T16:46:34;19.60;59.30
18974;DHT22;9621;48.690;9.466;2022-09-09T16:49:03;19.50;59.20
18974;DHT22;9621;48.690;9.466;2022-09-09T16:51:32;19.50;59.00
18974;DHT22;9621;48.690;9.466;2022-09-09T16:54:02;19.40;59.10
18974;DHT22;9621;48.690;9.466;2022-09-09T16:56:30;19.40;59.40
18974;DHT22;9621;48.690;9.466;2022-09-09T16:59:01;19.30;59.60
18974;DHT22;9621;48.690;9.466;2022-09-09T17:01:30;19.30;59.60
18974;DHT22;9621;48.690;9.466;2022-09-09T17:03:59;19.20;59.70
18974;DHT22;9621;48.690;9.466;2022-09-09T17:06:27;19.20;59.70
18974;DHT22;9621;48.690;9.466;2022-09-09T17:08:56;19.10;59.80
18974;DHT22;9621;48.690;9.466;2022-09-09T17:11:25;19.10;60.10
18974;DHT22;9621;48.690;9.466;2022-09-09T17:13:52;19.00;60.10
18974;DHT22;9621;48.690;9.466;2022-09-09T17:16:21;19.00;60.50
18974;DHT22;9621;48.690;9.466;2022-09-09T17:18:48;18.90;60.50
18974;DHT22;9621;48.690;9.466;2022-09-09T17:21:17;18.80;61.00
18974;DHT22;9621;48.690;9.466;2022-09-09T17:23:45;18.70;61.20
18974;DHT22;9621;48.690;9.466;2022-09-09T17:26:14;18.60;61.50
18974;DHT22;9621;48.690;9.466;2022-09-09T17:28:44;18.50;61.80
18974;DHT22;9621;48.690;9.466;2022-09-09T17:31:13;18.40;62.30
18974;DHT22;9621;48.690;9.466;2022-09-09T17:33:42;18.30;63.00
18974;DHT22;9621;48.690;9.466;2022-09-09T17:36:11;18.20;63.30
18974;DHT22;9621;48.690;9.466;2022-09-09T17:38:38;18.10;63.50
18974;DHT22;9621;48.690;9.466;2022-09-09T17:41:07;17.90;63.50
18974;DHT22;9621;48.690;9.466;2022-09-09T17:43:35;17.80;63.90
18974;DHT22;9621;48.690;9.466;2022-09-09T17:46:08;17.70;64.20
18974;DHT22;9621;48.690;9.466;2022-09-09T17:48:36;17.60;64.80
18974;DHT22;9621;48.690;9.466;2022-09-09T17:51:04;17.50;64.80
18974;DHT22;9621;48.690;9.466;2022-09-09T17:53:36;17.40;65.00
18974;DHT22;9621;48.690;9.466;2022-09-09T17:56:04;17.30;65.70
18974;DHT22;9621;48.690;9.466;2022-09-09T17:58:31;17.20;66.00
18974;DHT22;9621;48.690;9.466;2022-09-09T18:01:02;17.10;66.30
18974;DHT22;9621;48.690;9.466;2022-09-09T18:03:33;17.00;66.70
18974;DHT22;9621;48.690;9.466;2022-09-09T18:06:01;16.90;67.00
18974;DHT22;9621;48.690;9.466;2022-09-09T18:08:28;16.90;67.40
18974;DHT22;9621;48.690;9.466;2022-09-09T18:10:55;16.90;67.70
18974;DHT22;9621;48.690;9.466;2022-09-09T18:13:22;16.80;67.70
18974;DHT22;9621;48.690;9.466;2022-09-09T18:15:49;16.80;68.10
18974;DHT22;9621;48.690;9.466;2022-09-09T18:18:16;16.70;68.00
18974;DHT22;9621;48.690;9.466;2022-09-09T18:20:45;16.70;68.30
18974;DHT22;9621;48.690;9.466;2022-09-09T18:23:12;16.70;68.70
18974;DHT22;9621;48.690;9.466;2022-09-09T18:25:39;16.70;68.60
18974;DHT22;9621;48.690;9.466;2022-09-09T18:28:09;16.60;68.80
18974;DHT22;9621;48.690;9.466;2022-09-09T18:30:38;16.60;68.70
18974;DHT22;9621;48.690;9.466;2022-09-09T18:33:05;16.50;69.10
18974;DHT22;9621;48.690;9.466;2022-09-09T18:35:35;16.50;69.00
18974;DHT22;9621;48.690;9.466;2022-09-09T18:38:04;16.40;69.60
18974;DHT22;9621;48.690;9.466;2022-09-09T18:40:31;16.30;70.70
18974;DHT22;9621;48.690;9.466;2022-09-09T18:42:58;16.20;69.90
18974;DHT22;9621;48.690;9.466;2022-09-09T18:45:25;16.20;70.10
18974;DHT22;9621;48.690;9.466;2022-09-09T18:47:52;16.00;70.50
18974;DHT22;9621;48.690;9.466;2022-09-09T18:50:21;16.00;70.90
18974;DHT22;9621;48.690;9.466;2022-09-09T18:52:48;15.90;71.30
18974;DHT22;9621;48.690;9.466;2022-09-09T18:55:16;15.90;71.60
18974;DHT22;9621;48.690;9.466;2022-09-09T18:57:43;15.80;71.80
18974;DHT22;9621;48.690;9.466;2022-09-09T19:00:11;15.80;72.10
18974;DHT22;9621;48.690;9.466;2022-09-09T19:02:39;15.80;72.70
18974;DHT22;9621;48.690;9.466;2022-09-09T19:05:06;15.80;72.90
18974;DHT22;9621;48.690;9.466;2022-09-09T19:07:33;15.70;73.10
18974;DHT22;9621;48.690;9.466;2022-09-09T19:10:00;15.70;73.30
18974;DHT22;9621;48.690;9.466;2022-09-09T19:12:29;15.70;73.70
18974;DHT22;9621;48.690;9.466;2022-09-09T19:14:55;15.70;74.30
18974;DHT22;9621;48.690;9.466;2022-09-09T19:17:22;15.70;74.30
18974;DHT22;9621;48.690;9.466;2022-09-09T19:19:50;15.70;74.70
18974;DHT22;9621;48.690;9.466;2022-09-09T19:22:18;15.60;74.70
18974;DHT22;9621;48.690;9.466;2022-09-09T19:24:45;15.60;75.00
18974;DHT22;9621;48.690;9.466;2022-09-09T19:27:12;15.50;75.20
18974;DHT22;9621;48.690;9.466;2022-09-09T19:29:40;15.50;75.60
18974;DHT22;9621;48.690;9.466;2022-09-09T19:32:09;15.50;75.60
18974;DHT22;9621;48.690;9.466;2022-09-09T19:34:36;15.40;75.90
18974;DHT22;9621;48.690;9.466;2022-09-09T19:37:03;15.30;76.10
